Time;durP1;ratioP1;P1;durP2;ratioP2;P2;SDS_P1;SDS_P2;PMS_P1;PMS_P2;Temp;Humidity;BMP_temperature;BMP_pressure;BME280_temperature;BME280_humidity;BME280_pressure;Samples;Min_cycle;Max_cycle;Signal;HPM_P1;HPM_P2
2022/08/17 00:04:39;;;;;;;8.73;4.43;;;;;;;;;;10413119;28;20590;-74
2022/08/17 00:09:39;;;;;;;6.88;4.32;;;;;;;;;;10410561;28;20021;-73
2022/08/17 00:14:39;;;;;;;11.90;4.97;;;;;;;;;;10411211;28;20112;-74
2022/08/17 00:19:40;;;;;;;6.38;4.05;;;;;;;;;;10414691;28;20275;-75
2022/08/17 00:24:40;;;;;;;6.45;4.07;;;;;;;;;;10417326;28;20074;-74
2022/08/17 00:29:41;;;;;;;7.65;4.50;;;;;;;;;;10408331;28;20013;-73
2022/08/17 00:34:41;;;;;;;10.05;4.35;;;;;;;;;;10411466;28;20075;-73
2022/08/17 00:39:41;;;;;;;9.70;5.03;;;;;;;;;;10410969;28;20030;-75
2022/08/17 00:44:41;;;;;;;8.32;5.10;;;;;;;;;;10437583;28;20024;-74
2022/08/17 00:49:42;;;;;;;8.40;4.40;;;;;;;;;;10420221;28;20009;-72
2022/08/17 00:54:43;;;;;;;7.93;4.80;;;;;;;;;;10425555;28;20021;-73
2022/08/17 00:59:45;;;;;;;12.90;4.63;;;;;;;;;;10422130;28;20030;-73
2022/08/17 01:04:47;;;;;;;8.98;4.93;;;;;;;;;;10415292;28;20017;-74
2022/08/17 01:09:47;;;;;;;8.02;4.68;;;;;;;;;;10411252;28;20020;-74
2022/08/17 01:14:47;;;;;;;6.83;4.13;;;;;;;;;;10413492;28;20613;-76
2022/08/17 01:19:48;;;;;;;6.60;4.22;;;;;;;;;;10420315;28;20552;-73
2022/08/17 01:24:55;;;;;;;9.55;4.70;;;;;;;;;;10425665;28;20030;-73
2022/08/17 01:30:00;;;;;;;7.25;3.90;;;;;;;;;;10434035;28;20017;-73
2022/08/17 01:35:00;;;;;;;7.38;3.90;;;;;;;;;;10424445;28;20037;-73
2022/08/17 01:40:19;;;;;;;10.00;3.60;;;;;;;;;;10419258;28;20033;-73
2022/08/17 01:45:21;;;;;;;8.40;4.45;;;;;;;;;;10418359;28;20428;-74
2022/08/17 01:50:24;;;;;;;7.35;4.38;;;;;;;;;;10407970;28;20622;-74
2022/08/17 01:55:30;;;;;;;10.05;4.18;;;;;;;;;;10410048;28;20039;-73
2022/08/17 02:00:30;;;;;;;6.35;4.45;;;;;;;;;;10390576;28;20064;-73
2022/08/17 02:05:31;;;;;;;8.00;4.40;;;;;;;;;;10399227;28;20518;-80
2022/08/17 02:10:32;;;;;;;11.13;4.65;;;;;;;;;;10426446;28;20018;-76
2022/08/17 02:15:33;;;;;;;7.95;5.07;;;;;;;;;;10413345;28;20021;-77
2022/08/17 02:20:34;;;;;;;12.02;4.00;;;;;;;;;;10408428;28;20029;-77
2022/08/17 02:25:35;;;;;;;8.25;5.60;;;;;;;;;;10407096;28;20531;-78
2022/08/17 02:30:35;;;;;;;5.63;4.28;;;;;;;;;;10415122;28;20117;-79
2022/08/17 02:35:36;;;;;;;6.95;4.32;;;;;;;;;;10415871;28;20482;-74
2022/08/17 02:40:39;;;;;;;7.30;4.68;;;;;;;;;;10414040;28;20033;-78
2022/08/17 02:45:39;;;;;;;10.45;4.68;;;;;;;;;;10425005;28;20053;-78
2022/08/17 02:50:39;;;;;;;11.30;4.82;;;;;;;;;;10430440;28;20049;-76
2022/08/17 02:55:40;;;;;;;10.27;4.90;;;;;;;;;;10413597;28;20044;-78
2022/08/17 03:00:42;;;;;;;8.27;5.25;;;;;;;;;;10416323;28;20080;-76
2022/08/17 03:05:43;;;;;;;8.93;5.65;;;;;;;;;;10412472;28;20025;-72
2022/08/17 03:10:44;;;;;;;7.40;4.60;;;;;;;;;;10413839;28;20072;-73
2022/08/17 03:15:44;;;;;;;10.85;5.75;;;;;;;;;;10412514;28;20029;-74
2022/08/17 03:20:45;;;;;;;12.15;6.00;;;;;;;;;;10429378;28;20025;-74
2022/08/17 03:25:45;;;;;;;8.00;4.97;;;;;;;;;;10412713;28;20021;-79
2022/08/17 03:30:46;;;;;;;9.10;5.30;;;;;;;;;;10414405;28;20398;-79
2022/08/17 03:35:46;;;;;;;11.43;7.32;;;;;;;;;;10429491;28;20048;-73
2022/08/17 03:40:47;;;;;;;16.17;9.70;;;;;;;;;;10395239;28;20404;-78
2022/08/17 03:56:41;;;;;;;11.52;6.38;;;;;;;;;;10413018;28;20029;-75
2022/08/17 04:01:46;;;;;;;11.95;6.18;;;;;;;;;;10427145;28;20110;-75
2022/08/17 04:06:47;;;;;;;23.08;8.48;;;;;;;;;;10424127;28;20551;-75
2022/08/17 04:11:47;;;;;;;10.75;5.55;;;;;;;;;;10437279;28;20112;-74
2022/08/17 04:16:47;;;;;;;11.60;5.63;;;;;;;;;;10423541;28;20048;-73
2022/08/17 04:21:47;;;;;;;9.77;5.13;;;;;;;;;;10410300;28;20108;-74
2022/08/17 04:26:48;;;;;;;6.47;5.28;;;;;;;;;;10409686;28;20025;-74
2022/08/17 04:31:48;;;;;;;11.68;5.60;;;;;;;;;;10421587;28;20052;-74
2022/08/17 04:36:48;;;;;;;15.80;5.75;;;;;;;;;;10412557;28;20068;-73
2022/08/17 04:42:15;;;;;;;9.73;5.50;;;;;;;;;;10409179;28;20025;-74
2022/08/17 04:47:16;;;;;;;11.77;5.80;;;;;;;;;;10421997;28;20033;-74
2022/08/17 04:52:16;;;;;;;8.70;5.20;;;;;;;;;;10391526;28;20018;-73
2022/08/17 04:57:16;;;;;;;10.25;4.72;;;;;;;;;;10422659;28;20331;-73
2022/08/17 05:02:16;;;;;;;11.07;5.30;;;;;;;;;;10408036;28;20047;-74
2022/08/17 05:07:17;;;;;;;10.68;5.20;;;;;;;;;;10408372;28;20085;-73
2022/08/17 05:12:17;;;;;;;9.85;5.80;;;;;;;;;;10438723;28;20025;-75
2022/08/17 05:17:17;;;;;;;12.57;5.68;;;;;;;;;;10417675;28;20029;-75
2022/08/17 05:22:17;;;;;;;11.75;5.63;;;;;;;;;;10407851;28;20025;-76
2022/08/17 05:27:17;;;;;;;5.93;4.05;;;;;;;;;;10408037;28;20111;-73
2022/08/17 05:32:21;;;;;;;9.65;4.35;;;;;;;;;;10424057;28;20044;-75
2022/08/17 05:37:21;;;;;;;10.73;4.55;;;;;;;;;;10410235;28;20043;-78
2022/08/17 05:42:22;;;;;;;8.13;4.80;;;;;;;;;;10407287;28;20426;-77
2022/08/17 05:47:23;;;;;;;9.13;5.10;;;;;;;;;;10412058;28;20058;-81
2022/08/17 05:52:30;;;;;;;20.20;4.72;;;;;;;;;;10422785;28;20264;-81
2022/08/17 05:57:33;;;;;;;10.45;4.10;;;;;;;;;;10404030;28;20056;-77
2022/08/17 06:02:33;;;;;;;7.57;4.78;;;;;;;;;;10402520;28;20037;-72
2022/08/17 06:07:46;;;;;;;13.23;4.57;;;;;;;;;;10414835;28;20029;-77
2022/08/17 06:12:58;;;;;;;8.40;4.15;;;;;;;;;;10406132;28;20017;-77
2022/08/17 06:18:02;;;;;;;6.72;3.38;;;;;;;;;;10411612;28;20080;-72
2022/08/17 06:23:06;;;;;;;8.68;4.00;;;;;;;;;;10409375;28;20372;-72
2022/08/17 06:28:18;;;;;;;11.38;4.30;;;;;;;;;;10411083;28;20055;-77
2022/08/17 06:33:21;;;;;;;12.05;4.55;;;;;;;;;;10430990;28;20076;-77
2022/08/17 06:38:21;;;;;;;18.10;4.90;;;;;;;;;;10416107;28;20116;-73
2022/08/17 06:43:21;;;;;;;14.43;5.03;;;;;;;;;;10425153;28;20025;-76
2022/08/17 06:48:38;;;;;;;10.05;4.70;;;;;;;;;;10414941;28;20111;-76
2022/08/17 06:53:47;;;;;;;10.85;5.30;;;;;;;;;;10407565;28;20017;-74
2022/08/17 06:58:48;;;;;;;10.32;4.45;;;;;;;;;;10406019;28;20079;-76
2022/08/17 07:03:54;;;;;;;16.55;5.50;;;;;;;;;;10419139;28;20170;-77
2022/08/17 07:08:58;;;;;;;11.85;4.20;;;;;;;;;;10410029;28;20103;-74
2022/08/17 07:14:04;;;;;;;5.85;3.40;;;;;;;;;;10409565;28;20079;-74
2022/08/17 07:19:06;;;;;;;7.30;3.58;;;;;;;;;;10410054;28;20049;-73
2022/08/17 07:24:06;;;;;;;10.68;3.65;;;;;;;;;;10424612;28;20091;-73
2022/08/17 07:29:08;;;;;;;16.83;5.00;;;;;;;;;;10423468;28;20050;-73
2022/08/17 07:34:13;;;;;;;9.43;4.03;;;;;;;;;;10405740;28;20478;-73
2022/08/17 07:39:24;;;;;;;10.95;4.10;;;;;;;;;;10418398;28;20096;-73
2022/08/17 07:44:25;;;;;;;12.00;4.20;;;;;;;;;;10406634;28;20465;-76
2022/08/17 07:49:33;;;;;;;10.38;4.43;;;;;;;;;;10406009;28;20031;-78
2022/08/17 07:54:42;;;;;;;9.48;3.75;;;;;;;;;;10428935;28;20048;-81
2022/08/17 08:00:02;;;;;;;7.05;2.92;;;;;;;;;;10422041;28;20067;-77
2022/08/17 08:05:07;;;;;;;7.05;3.05;;;;;;;;;;10406999;28;20033;-77
2022/08/17 08:10:24;;;;;;;7.47;3.53;;;;;;;;;;10405869;28;20398;-77
2022/08/17 08:15:32;;;;;;;3.90;2.78;;;;;;;;;;10418663;28;20132;-76
2022/08/17 08:20:43;;;;;;;5.45;2.33;;;;;;;;;;10410283;28;20033;-77
2022/08/17 08:25:55;;;;;;;6.63;3.17;;;;;;;;;;10388820;28;20025;-77
2022/08/17 08:31:12;;;;;;;4.22;2.40;;;;;;;;;;10407287;28;20029;-73
2022/08/17 08:36:12;;;;;;;7.20;2.30;;;;;;;;;;10392291;28;20049;-78
2022/08/17 08:41:33;;;;;;;5.43;2.40;;;;;;;;;;10406013;28;20394;-77
2022/08/17 08:46:52;;;;;;;8.05;2.35;;;;;;;;;;10411165;28;20044;-77
2022/08/17 08:51:59;;;;;;;5.97;1.98;;;;;;;;;;10405203;28;20163;-78
2022/08/17 08:57:10;;;;;;;10.35;2.47;;;;;;;;;;10407486;28;20021;-77
2022/08/17 09:02:23;;;;;;;4.70;2.22;;;;;;;;;;10423016;28;20033;-76
2022/08/17 09:07:44;;;;;;;11.13;1.80;;;;;;;;;;10423901;28;20380;-73
2022/08/17 09:12:50;;;;;;;4.75;2.17;;;;;;;;;;10411995;28;20594;-73
2022/08/17 09:17:54;;;;;;;2.65;1.70;;;;;;;;;;10405825;28;20056;-73
2022/08/17 09:23:07;;;;;;;5.57;2.07;;;;;;;;;;10425609;28;20033;-76
2022/08/17 09:28:15;;;;;;;8.23;1.90;;;;;;;;;;10403873;28;20021;-77
2022/08/17 09:33:21;;;;;;;3.20;1.63;;;;;;;;;;10409551;28;20538;-72
2022/08/17 09:38:24;;;;;;;4.65;1.65;;;;;;;;;;10419350;28;20029;-77
2022/08/17 09:43:42;;;;;;;2.33;1.30;;;;;;;;;;10406806;28;20311;-78
2022/08/17 09:48:54;;;;;;;4.75;2.00;;;;;;;;;;10420529;28;20043;-75
2022/08/17 09:53:54;;;;;;;8.43;1.38;;;;;;;;;;10404934;28;20032;-77
2022/08/17 09:59:01;;;;;;;5.63;2.20;;;;;;;;;;10424560;28;20375;-78
2022/08/17 10:04:19;;;;;;;6.93;1.92;;;;;;;;;;10425043;28;20854;-79
2022/08/17 10:09:20;;;;;;;2.67;1.30;;;;;;;;;;10408382;28;20026;-77
2022/08/17 10:14:28;;;;;;;9.20;1.83;;;;;;;;;;10407841;28;20025;-79
2022/08/17 10:19:39;;;;;;;3.95;1.40;;;;;;;;;;10418875;28;20041;-78
2022/08/17 10:30:03;;;;;;;6.80;1.42;;;;;;;;;;10407987;28;20026;-79
2022/08/17 10:35:03;;;;;;;6.28;1.35;;;;;;;;;;10423809;28;20111;-76
2022/08/17 10:40:04;;;;;;;5.13;1.52;;;;;;;;;;10404684;28;20025;-77
2022/08/17 10:45:05;;;;;;;5.15;1.63;;;;;;;;;;10417935;28;20022;-74
2022/08/17 10:50:26;;;;;;;3.95;1.60;;;;;;;;;;10423056;28;20025;-78
2022/08/17 10:55:27;;;;;;;3.35;1.52;;;;;;;;;;10424400;28;20112;-73
2022/08/17 11:00:37;;;;;;;5.85;1.83;;;;;;;;;;10412910;28;20223;-77
2022/08/17 11:05:52;;;;;;;6.78;1.15;;;;;;;;;;10407491;28;20032;-77
2022/08/17 11:11:05;;;;;;;4.95;1.75;;;;;;;;;;10424636;28;20658;-78
2022/08/17 11:16:17;;;;;;;2.10;1.50;;;;;;;;;;10405696;28;20030;-74
2022/08/17 11:21:30;;;;;;;6.88;2.58;;;;;;;;;;10409834;28;20443;-78
2022/08/17 11:26:32;;;;;;;4.25;2.55;;;;;;;;;;10412827;28;20022;-72
2022/08/17 11:31:40;;;;;;;3.38;2.25;;;;;;;;;;10426864;28;20155;-74
2022/08/17 11:36:55;;;;;;;4.38;2.17;;;;;;;;;;10405226;28;20511;-78
2022/08/17 11:42:04;;;;;;;8.63;3.15;;;;;;;;;;10408107;28;20142;-78
2022/08/17 11:52:39;;;;;;;8.32;2.92;;;;;;;;;;10405611;28;20407;-77
2022/08/17 11:57:39;;;;;;;;;;;;;;;;;;10426116;28;20022;-80
2022/08/17 12:02:44;;;;;;;3.60;2.88;;;;;;;;;;10423403;28;20330;-78
2022/08/17 12:07:56;;;;;;;3.40;2.75;;;;;;;;;;10407109;28;20493;-78
2022/08/17 12:12:58;;;;;;;4.72;3.10;;;;;;;;;;10411609;28;20013;-77
2022/08/17 12:17:58;;;;;;;5.40;3.10;;;;;;;;;;10424540;28;20490;-75
2022/08/17 12:22:59;;;;;;;12.48;3.30;;;;;;;;;;10421560;28;20023;-77
2022/08/17 12:28:00;;;;;;;9.75;3.85;;;;;;;;;;10423673;28;20029;-73
2022/08/17 12:33:01;;;;;;;8.00;2.90;;;;;;;;;;10404649;28;20534;-76
2022/08/17 12:38:03;;;;;;;5.70;3.58;;;;;;;;;;10404462;28;20051;-78
2022/08/17 12:43:03;;;;;;;9.45;3.35;;;;;;;;;;10399144;28;20025;-77
2022/08/17 12:48:09;;;;;;;12.10;3.45;;;;;;;;;;10413458;28;20499;-78
2022/08/17 12:53:14;;;;;;;5.35;3.40;;;;;;;;;;10397054;28;20414;-80
2022/08/17 12:58:20;;;;;;;4.50;2.90;;;;;;;;;;10400586;28;20479;-76
2022/08/17 13:03:22;;;;;;;3.83;2.63;;;;;;;;;;10402041;28;20021;-78
2022/08/17 13:08:30;;;;;;;8.07;4.25;;;;;;;;;;10397135;28;20068;-77
2022/08/17 13:13:32;;;;;;;7.07;3.13;;;;;;;;;;10408196;28;20637;-73
2022/08/17 13:18:32;;;;;;;7.38;3.05;;;;;;;;;;10399041;28;20030;-77
2022/08/17 13:23:33;;;;;;;4.00;2.83;;;;;;;;;;10399641;28;20017;-78
2022/08/17 13:28:35;;;;;;;5.82;3.17;;;;;;;;;;10400240;28;20027;-73
2022/08/17 13:33:36;;;;;;;5.32;3.40;;;;;;;;;;10383699;28;20050;-73
2022/08/17 13:38:48;;;;;;;5.60;3.13;;;;;;;;;;10398937;28;20041;-76
2022/08/17 13:43:49;;;;;;;6.55;3.13;;;;;;;;;;10398549;28;20167;-78
2022/08/17 13:49:16;;;;;;;3.00;2.60;;;;;;;;;;10415518;28;20497;-77
2022/08/17 13:54:33;;;;;;;6.57;3.50;;;;;;;;;;10394235;28;20167;-79
2022/08/17 13:59:36;;;;;;;5.80;3.00;;;;;;;;;;10396565;28;20018;-77
2022/08/17 14:04:38;;;;;;;7.03;3.40;;;;;;;;;;10401175;28;20063;-76
2022/08/17 14:09:39;;;;;;;7.57;5.28;;;;;;;;;;10394733;28;20032;-78
2022/08/17 14:14:41;;;;;;;7.55;3.55;;;;;;;;;;10394772;28;20025;-76
2022/08/17 14:19:41;;;;;;;6.90;4.22;;;;;;;;;;10389964;28;20083;-78
2022/08/17 14:24:41;;;;;;;8.55;3.85;;;;;;;;;;10395917;28;20095;-75
2022/08/17 14:29:42;;;;;;;6.60;3.35;;;;;;;;;;10399983;28;20057;-77
2022/08/17 14:34:44;;;;;;;5.50;4.55;;;;;;;;;;10401200;28;20053;-82
2022/08/17 14:39:44;;;;;;;8.35;4.07;;;;;;;;;;10416586;28;20034;-78
2022/08/17 14:44:44;;;;;;;5.37;3.47;;;;;;;;;;10402343;28;20030;-75
2022/08/17 14:49:47;;;;;;;5.80;3.77;;;;;;;;;;10402831;28;20284;-78
2022/08/17 14:54:51;;;;;;;6.90;4.68;;;;;;;;;;10418763;28;20025;-77
2022/08/17 14:59:52;;;;;;;8.07;4.25;;;;;;;;;;10400939;28;20570;-78
2022/08/17 15:04:53;;;;;;;9.00;3.45;;;;;;;;;;10400692;28;20654;-79
2022/08/17 15:09:53;;;;;;;9.02;4.75;;;;;;;;;;10398155;28;20108;-78
2022/08/17 15:14:53;;;;;;;6.93;4.07;;;;;;;;;;10402318;28;20558;-76
2022/08/17 15:19:53;;;;;;;7.72;3.55;;;;;;;;;;10404895;28;20562;-76
2022/08/17 15:24:54;;;;;;;6.63;3.90;;;;;;;;;;10398305;28;20022;-76
2022/08/17 15:29:54;;;;;;;6.25;4.30;;;;;;;;;;10399164;28;20017;-76
2022/08/17 15:34:55;;;;;;;6.45;3.85;;;;;;;;;;10399071;28;20518;-77
2022/08/17 15:39:56;;;;;;;6.63;3.67;;;;;;;;;;10415040;28;20029;-78
2022/08/17 15:44:58;;;;;;;4.85;3.58;;;;;;;;;;10417271;28;20025;-77
2022/08/17 15:49:58;;;;;;;7.00;3.70;;;;;;;;;;10398449;28;20076;-77
2022/08/17 15:54:59;;;;;;;6.65;3.10;;;;;;;;;;10399078;28;20097;-77
2022/08/17 16:00:00;;;;;;;5.82;3.83;;;;;;;;;;10392767;28;20025;-76
2022/08/17 16:05:01;;;;;;;9.55;4.40;;;;;;;;;;10393727;28;20029;-77
2022/08/17 16:10:01;;;;;;;7.13;4.00;;;;;;;;;;10396732;28;20116;-78
2022/08/17 16:15:03;;;;;;;7.20;4.03;;;;;;;;;;10397597;28;20483;-73
2022/08/17 16:20:04;;;;;;;6.47;3.53;;;;;;;;;;10397581;28;20403;-76
2022/08/17 16:25:08;;;;;;;5.93;3.85;;;;;;;;;;10398395;28;20036;-75
2022/08/17 16:30:09;;;;;;;5.90;3.30;;;;;;;;;;10397238;28;20097;-78
2022/08/17 16:35:14;;;;;;;4.53;3.00;;;;;;;;;;10411019;28;20110;-73
2022/08/17 16:40:15;;;;;;;4.68;3.30;;;;;;;;;;10397226;28;20021;-74
2022/08/17 16:45:20;;;;;;;5.53;3.13;;;;;;;;;;10413550;28;20478;-78
2022/08/17 16:50:21;;;;;;;4.10;2.70;;;;;;;;;;10413225;28;20545;-77
2022/08/17 16:55:21;;;;;;;6.72;3.08;;;;;;;;;;10395379;28;20120;-77
2022/08/17 17:00:22;;;;;;;4.07;2.77;;;;;;;;;;10396250;28;20083;-77
2022/08/17 17:05:23;;;;;;;8.38;3.35;;;;;;;;;;10392911;28;20021;-74
2022/08/17 17:10:27;;;;;;;12.55;3.85;;;;;;;;;;10394996;28;20029;-73
2022/08/17 17:15:32;;;;;;;9.90;4.85;;;;;;;;;;10395087;28;20027;-78
2022/08/17 17:20:37;;;;;;;9.63;4.43;;;;;;;;;;10398356;28;20025;-74
2022/08/17 17:26:01;;;;;;;4.63;3.33;;;;;;;;;;10399696;28;20566;-78
2022/08/17 17:31:04;;;;;;;7.13;2.53;;;;;;;;;;10404568;28;20049;-79
2022/08/17 17:36:25;;;;;;;4.40;2.75;;;;;;;;;;10398186;28;20047;-77
2022/08/17 17:41:32;;;;;;;6.22;3.08;;;;;;;;;;10397073;28;20455;-77
2022/08/17 17:46:38;;;;;;;6.25;2.88;;;;;;;;;;10415680;28;20024;-76
2022/08/17 17:51:51;;;;;;;7.53;3.22;;;;;;;;;;10397102;28;20025;-78
2022/08/17 17:56:54;;;;;;;8.80;3.28;;;;;;;;;;10399295;28;20414;-77
2022/08/17 18:02:00;;;;;;;6.93;3.92;;;;;;;;;;10400532;28;20483;-80
2022/08/17 18:07:00;;;;;;;5.38;3.58;;;;;;;;;;10397074;28;20380;-78
2022/08/17 18:12:19;;;;;;;8.38;4.07;;;;;;;;;;10399624;28;20025;-76
2022/08/17 18:17:20;;;;;;;5.40;3.15;;;;;;;;;;10401258;28;20056;-78
2022/08/17 18:22:20;;;;;;;8.70;3.73;;;;;;;;;;10395439;28;20108;-77
2022/08/17 18:27:22;;;;;;;5.93;3.08;;;;;;;;;;10395054;28;20036;-77
2022/08/17 18:32:27;;;;;;;8.98;3.30;;;;;;;;;;10396301;28;20049;-78
2022/08/17 18:37:36;;;;;;;7.28;3.33;;;;;;;;;;10398993;28;20033;-78
2022/08/17 18:42:37;;;;;;;6.75;3.30;;;;;;;;;;10398359;28;20025;-77
2022/08/17 18:47:51;;;;;;;7.43;3.10;;;;;;;;;;10398165;28;20096;-79
2022/08/17 18:52:54;;;;;;;7.47;3.50;;;;;;;;;;10394733;28;20087;-77
2022/08/17 18:57:55;;;;;;;13.65;4.43;;;;;;;;;;10398081;28;20017;-79
2022/08/17 19:02:59;;;;;;;9.50;4.00;;;;;;;;;;10402052;28;20010;-78
2022/08/17 19:08:19;;;;;;;10.10;3.83;;;;;;;;;;10415034;28;20028;-77
2022/08/17 19:13:21;;;;;;;5.43;3.10;;;;;;;;;;10407870;28;20013;-79
2022/08/17 19:18:35;;;;;;;12.02;3.90;;;;;;;;;;10406720;28;20025;-78
2022/08/17 19:23:39;;;;;;;8.13;4.55;;;;;;;;;;10424415;28;20037;-78
2022/08/17 19:28:46;;;;;;;7.82;4.53;;;;;;;;;;10402914;28;20712;-72
2022/08/17 19:33:46;;;;;;;14.67;4.63;;;;;;;;;;10409355;28;20077;-77
2022/08/17 19:39:24;;;;;;;11.95;4.30;;;;;;;;;;10420408;28;20551;-71
2022/08/17 19:44:47;;;;;;;13.17;5.10;;;;;;;;;;10316336;28;20037;-76
2022/08/17 19:49:58;;;;;;;9.07;3.40;;;;;;;;;;10407347;28;20040;-77
2022/08/17 19:55:14;;;;;;;10.25;3.28;;;;;;;;;;10402971;28;20510;-78
2022/08/17 20:00:15;;;;;;;14.38;4.60;;;;;;;;;;10402451;28;20495;-78
2022/08/17 20:05:19;;;;;;;10.70;4.43;;;;;;;;;;10405188;28;20301;-78
2022/08/17 20:10:39;;;;;;;6.57;3.45;;;;;;;;;;10420350;28;20033;-76
2022/08/17 20:15:41;;;;;;;11.60;3.70;;;;;;;;;;10407161;28;20113;-78
2022/08/17 20:20:59;;;;;;;11.90;4.47;;;;;;;;;;10403296;28;20495;-78
2022/08/17 20:25:59;;;;;;;;;;;;;;;;;;10419631;28;20104;-77
2022/08/17 20:31:00;;;;;;;12.13;3.63;;;;;;;;;;10403181;28;19909;-78
2022/08/17 20:36:19;;;;;;;7.18;3.53;;;;;;;;;;10420860;28;20084;-77
2022/08/17 20:41:26;;;;;;;11.13;3.78;;;;;;;;;;10402478;28;20130;-78
2022/08/17 20:46:33;;;;;;;7.80;3.90;;;;;;;;;;10413880;28;20025;-78
2022/08/17 20:51:52;;;;;;;7.03;3.55;;;;;;;;;;10409944;28;20028;-76
2022/08/17 20:56:55;;;;;;;8.13;3.50;;;;;;;;;;10422597;28;20096;-78
2022/08/17 21:02:08;;;;;;;9.77;4.78;;;;;;;;;;10401660;28;20029;-77
2022/08/17 21:07:31;;;;;;;9.05;3.88;;;;;;;;;;10427878;28;20025;-78
2022/08/17 21:12:46;;;;;;;12.32;3.90;;;;;;;;;;10394568;28;20053;-77
2022/08/17 21:18:02;;;;;;;7.13;3.88;;;;;;;;;;10421792;28;20569;-76
2022/08/17 21:23:21;;;;;;;6.40;3.90;;;;;;;;;;10393682;28;20041;-77
2022/08/17 21:28:24;;;;;;;10.93;3.83;;;;;;;;;;10404199;28;20076;-73
2022/08/17 21:33:27;;;;;;;10.45;4.40;;;;;;;;;;10419910;28;20511;-73
2022/08/17 21:38:35;;;;;;;6.50;4.03;;;;;;;;;;10420265;28;20030;-73
2022/08/17 21:43:45;;;;;;;9.68;4.38;;;;;;;;;;10413847;28;20534;-73
2022/08/17 21:48:45;;;;;;;7.47;4.57;;;;;;;;;;10417898;28;20045;-76
2022/08/17 21:53:48;;;;;;;7.10;4.78;;;;;;;;;;10402646;28;20053;-76
2022/08/17 21:58:54;;;;;;;9.52;4.68;;;;;;;;;;10406074;28;20017;-73
2022/08/17 22:03:54;;;;;;;8.35;4.75;;;;;;;;;;10404721;28;20399;-75
2022/08/17 22:09:24;;;;;;;10.43;5.03;;;;;;;;;;10420483;28;20026;-74
2022/08/17 22:14:32;;;;;;;8.40;4.82;;;;;;;;;;10385108;28;20119;-72
2022/08/17 22:19:34;;;;;;;7.90;4.40;;;;;;;;;;10430564;28;20045;-74
2022/08/17 22:24:35;;;;;;;7.05;4.32;;;;;;;;;;10429983;28;20036;-74
2022/08/17 22:29:43;;;;;;;8.35;4.35;;;;;;;;;;10404674;28;20030;-74
2022/08/17 22:34:44;;;;;;;8.80;5.35;;;;;;;;;;10419496;28;20057;-74
2022/08/17 22:39:44;;;;;;;6.13;4.50;;;;;;;;;;10387725;28;20579;-76
2022/08/17 22:44:46;;;;;;;10.03;4.60;;;;;;;;;;10406417;28;20167;-73
2022/08/17 22:49:48;;;;;;;9.88;4.50;;;;;;;;;;10410693;28;20017;-78
2022/08/17 23:00:28;;;;;;;11.18;5.10;;;;;;;;;;10411669;28;20108;-75
2022/08/17 23:05:28;;;;;;;8.88;4.80;;;;;;;;;;10415895;28;20469;-77
2022/08/17 23:10:28;;;;;;;8.32;5.20;;;;;;;;;;10410998;28;20112;-78
2022/08/17 23:15:31;;;;;;;8.90;5.27;;;;;;;;;;10432377;28;20079;-78
2022/08/17 23:20:36;;;;;;;12.20;5.32;;;;;;;;;;10420108;28;20491;-73
2022/08/17 23:25:36;;;;;;;10.48;5.65;;;;;;;;;;10409641;28;20061;-74
2022/08/17 23:30:41;;;;;;;15.50;5.03;;;;;;;;;;10408847;28;20113;-76
2022/08/17 23:35:42;;;;;;;7.05;4.88;;;;;;;;;;10410099;28;20049;-74
2022/08/17 23:40:43;;;;;;;11.18;5.35;;;;;;;;;;10413716;28;20411;-74
2022/08/17 23:45:43;;;;;;;6.88;4.38;;;;;;;;;;10409945;28;20029;-74
2022/08/17 23:50:43;;;;;;;7.82;4.88;;;;;;;;;;10409836;28;20051;-76
2022/08/17 23:55:43;;;;;;;7.90;4.72;;;;;;;;;;10423936;28;20017;-75
